Time;durP1;ratioP1;P1;durP2;ratioP2;P2;SDS_P1;SDS_P2;PMS_P1;PMS_P2;Temp;Humidity;BMP_temperature;BMP_pressure;BME280_temperature;BME280_humidity;BME280_pressure;Samples;Min_cycle;Max_cycle;Signal;HPM_P1;HPM_P2
2023/06/11 00:00:57;;;;;;;5.55;2.78;;;18.90;99.90;;;;;;5158289;27;20043;-57
2023/06/11 00:03:23;;;;;;;6.30;3.05;;;18.90;99.90;;;;;;5158195;27;20045;-56
2023/06/11 00:05:49;;;;;;;5.63;2.75;;;18.90;99.90;;;;;;5122723;27;20082;-56
2023/06/11 00:08:14;;;;;;;5.72;2.67;;;18.90;99.90;;;;;;5158303;27;20133;-56
2023/06/11 00:10:40;;;;;;;6.63;2.67;;;18.90;99.90;;;;;;5139699;27;20082;-56
2023/06/11 00:13:05;;;;;;;6.68;2.47;;;18.90;99.90;;;;;;5158050;27;20039;-56
2023/06/11 00:15:31;;;;;;;7.07;3.00;;;18.90;99.90;;;;;;5157818;27;20508;-56
2023/06/11 00:17:57;;;;;;;5.43;3.05;;;18.90;99.90;;;;;;5157497;27;20098;-56
2023/06/11 00:20:23;;;;;;;5.32;2.63;;;18.90;99.90;;;;;;5139372;27;20046;-56
2023/06/11 00:22:48;;;;;;;;;;;18.90;99.90;;;;;;5140228;27;20074;-56
2023/06/11 00:25:15;;;;;;;6.50;3.28;;;18.90;99.90;;;;;;5158118;27;19977;-56
2023/06/11 00:27:41;;;;;;;5.25;2.50;;;18.80;99.90;;;;;;5157893;27;20173;-56
2023/06/11 00:30:07;;;;;;;8.60;3.78;;;18.80;99.90;;;;;;5157917;27;20143;-57
2023/06/11 00:32:34;;;;;;;6.07;2.97;;;18.80;99.90;;;;;;5139562;27;20038;-57
2023/06/11 00:35:01;;;;;;;7.28;3.60;;;18.80;99.90;;;;;;5157325;27;20050;-57
2023/06/11 00:37:27;;;;;;;;;;;18.80;99.90;;;;;;5158164;27;20053;-56
2023/06/11 00:39:53;;;;;;;6.00;3.28;;;18.70;99.90;;;;;;5157719;27;19942;-57
2023/06/11 00:42:21;;;;;;;5.40;2.92;;;18.70;99.90;;;;;;5157608;27;20394;-57
2023/06/11 00:44:47;;;;;;;7.47;3.55;;;18.70;99.90;;;;;;5139487;27;20155;-56
2023/06/11 00:47:15;;;;;;;7.55;3.25;;;18.60;99.90;;;;;;5157395;27;20082;-57
2023/06/11 00:49:41;;;;;;;6.47;3.40;;;18.60;99.90;;;;;;5157157;27;20129;-57
2023/06/11 00:52:12;;;;;;;6.30;3.28;;;18.50;99.90;;;;;;5157539;27;20160;-57
2023/06/11 00:54:38;;;;;;;4.72;2.50;;;18.50;99.90;;;;;;5157239;27;20512;-57
2023/06/11 00:57:07;;;;;;;6.90;3.70;;;18.40;99.90;;;;;;5157388;27;20046;-57
2023/06/11 00:59:34;;;;;;;7.22;3.10;;;18.40;99.90;;;;;;5157268;27;20125;-57
2023/06/11 01:02:21;;;;;;;5.95;2.97;;;18.40;99.90;;;;;;5157167;27;20038;-57
2023/06/11 01:04:51;;;;;;;5.43;3.10;;;18.40;99.90;;;;;;5157292;27;20034;-57
2023/06/11 01:07:18;;;;;;;7.50;3.13;;;18.40;99.90;;;;;;5156963;27;20355;-57
2023/06/11 01:09:45;;;;;;;5.72;2.85;;;18.40;99.90;;;;;;5157300;27;20047;-57
2023/06/11 01:12:12;;;;;;;6.32;2.92;;;18.40;99.90;;;;;;5156934;27;20389;-57
2023/06/11 01:14:39;;;;;;;6.78;3.33;;;18.40;99.90;;;;;;5156925;27;20379;-57
2023/06/11 01:17:15;;;;;;;5.43;2.92;;;18.40;99.90;;;;;;5156805;27;20108;-57
2023/06/11 01:20:10;;;;;;;5.85;3.20;;;18.30;99.90;;;;;;5157021;27;20481;-57
2023/06/11 01:23:06;;;;;;;7.18;2.72;;;18.30;99.90;;;;;;5156751;27;20397;-56
2023/06/11 01:26:08;;;;;;;5.80;3.20;;;18.20;99.90;;;;;;5156830;27;20102;-57
2023/06/11 01:28:37;;;;;;;6.32;3.22;;;18.20;99.90;;;;;;5156750;27;20042;-56
2023/06/11 01:31:12;;;;;;;6.10;3.20;;;18.10;99.90;;;;;;5156541;27;20099;-57
2023/06/11 01:33:38;;;;;;;9.07;4.35;;;18.10;99.90;;;;;;5156341;27;20058;-57
2023/06/11 01:36:05;;;;;;;7.07;3.78;;;18.10;99.90;;;;;;5156526;27;20050;-57
2023/06/11 01:38:34;;;;;;;8.07;3.55;;;18.00;99.90;;;;;;5156497;27;20089;-56
2023/06/11 01:41:01;;;;;;;6.00;3.35;;;18.00;99.90;;;;;;5156286;27;20046;-56
2023/06/11 01:43:28;;;;;;;6.50;3.60;;;17.90;99.90;;;;;;5156134;27;20099;-56
2023/06/11 01:45:55;;;;;;;6.28;3.80;;;17.90;99.90;;;;;;5156110;27;20049;-56
2023/06/11 01:48:21;;;;;;;6.53;3.58;;;17.90;99.90;;;;;;5156306;27;20082;-56
2023/06/11 01:50:47;;;;;;;;;;;17.80;99.90;;;;;;5156709;27;20042;-56
2023/06/11 01:53:12;;;;;;;6.05;3.50;;;17.80;99.90;;;;;;5156103;27;20417;-56
2023/06/11 01:55:39;;;;;;;6.25;3.95;;;17.70;99.90;;;;;;5156105;27;20508;-56
2023/06/11 01:58:05;;;;;;;7.03;4.50;;;17.70;99.90;;;;;;5155963;27;20046;-56
2023/06/11 02:00:31;;;;;;;6.03;3.70;;;17.70;99.90;;;;;;5155876;27;20042;-56
2023/06/11 02:02:56;;;;;;;6.22;3.88;;;17.70;99.90;;;;;;5156055;27;20065;-56
2023/06/11 02:05:22;;;;;;;7.35;3.53;;;17.70;99.90;;;;;;5137777;27;20047;-56
2023/06/11 02:07:48;;;;;;;9.48;4.90;;;17.70;99.90;;;;;;5137592;27;20050;-56
2023/06/11 02:10:13;;;;;;;7.13;4.57;;;17.70;99.90;;;;;;5155809;27;20041;-57
2023/06/11 02:12:39;;;;;;;7.05;4.32;;;17.70;99.90;;;;;;5155569;27;20096;-56
2023/06/11 02:15:06;;;;;;;6.35;3.83;;;17.60;99.90;;;;;;5155824;27;20039;-56
2023/06/11 02:17:32;;;;;;;7.75;4.32;;;17.60;99.90;;;;;;5137246;27;20046;-56
2023/06/11 02:19:57;;;;;;;8.40;4.57;;;17.60;99.90;;;;;;5155752;27;20046;-56
2023/06/11 02:22:23;;;;;;;7.40;4.50;;;17.60;99.90;;;;;;5155609;27;20039;-56
2023/06/11 02:24:49;;;;;;;7.53;4.60;;;17.60;99.90;;;;;;5155644;27;20089;-56
2023/06/11 02:27:14;;;;;;;8.85;4.45;;;17.60;99.90;;;;;;5155570;27;20375;-56
2023/06/11 02:29:40;;;;;;;9.35;4.50;;;17.60;99.90;;;;;;5137171;27;20043;-56
2023/06/11 02:32:07;;;;;;;8.30;4.85;;;17.50;99.90;;;;;;5155488;27;20506;-56
2023/06/11 02:34:33;;;;;;;6.90;4.30;;;17.50;99.90;;;;;;5136924;27;20058;-56
2023/06/11 02:36:58;;;;;;;8.07;3.65;;;17.50;99.90;;;;;;5155493;27;20458;-56
2023/06/11 02:39:24;;;;;;;8.48;4.47;;;17.50;99.90;;;;;;5155014;27;20549;-56
2023/06/11 02:41:50;;;;;;;7.30;4.50;;;17.50;99.90;;;;;;5155362;27;20038;-57
2023/06/11 02:44:15;;;;;;;8.05;4.15;;;17.50;99.90;;;;;;5155286;27;20394;-57
2023/06/11 02:46:41;;;;;;;9.98;4.50;;;17.50;99.90;;;;;;5155429;27;20078;-57
2023/06/11 02:49:07;;;;;;;7.30;4.13;;;17.50;99.90;;;;;;5155375;27;20046;-56
2023/06/11 02:51:33;;;;;;;8.43;4.43;;;17.50;99.90;;;;;;5155296;27;20082;-56
2023/06/11 02:53:58;;;;;;;7.07;4.22;;;17.50;99.90;;;;;;5155501;27;20039;-56
2023/06/11 02:56:24;;;;;;;8.23;4.20;;;17.40;99.90;;;;;;5155347;27;20043;-56
2023/06/11 02:58:50;;;;;;;8.70;4.70;;;17.40;99.90;;;;;;5155041;27;20043;-56
2023/06/11 03:01:16;;;;;;;8.13;4.93;;;17.40;99.90;;;;;;5155215;27;20046;-57
2023/06/11 03:03:41;;;;;;;8.55;4.25;;;17.40;99.90;;;;;;5155213;27;20039;-56
2023/06/11 03:06:08;;;;;;;7.75;4.85;;;17.40;99.90;;;;;;5155510;27;20442;-56
2023/06/11 03:08:34;;;;;;;9.27;4.75;;;17.30;99.90;;;;;;5155180;27;20057;-56
2023/06/11 03:11:00;;;;;;;8.05;4.80;;;17.30;99.90;;;;;;5155075;27;20125;-56
2023/06/11 03:13:25;;;;;;;6.90;4.25;;;17.30;99.90;;;;;;5155028;27;20043;-56
2023/06/11 03:15:51;;;;;;;9.02;4.25;;;17.30;99.90;;;;;;5154976;27;20529;-56
2023/06/11 03:18:17;;;;;;;8.52;4.40;;;17.20;99.90;;;;;;5155127;27;20587;-56
2023/06/11 03:20:43;;;;;;;8.63;4.63;;;17.20;99.90;;;;;;5155067;27;20078;-56
2023/06/11 03:23:10;;;;;;;9.25;4.75;;;17.10;99.90;;;;;;5119576;27;20039;-56
2023/06/11 03:25:36;;;;;;;7.28;4.97;;;17.10;99.90;;;;;;5154826;27;20051;-56
2023/06/11 03:28:02;;;;;;;9.07;5.38;;;17.20;99.90;;;;;;5154879;27;20050;-56
2023/06/11 03:30:28;;;;;;;8.15;4.95;;;17.10;99.90;;;;;;5136753;27;20489;-56
2023/06/11 03:32:54;;;;;;;8.68;4.45;;;17.10;99.90;;;;;;5136466;27;20039;-56
2023/06/11 03:35:20;;;;;;;6.47;4.40;;;17.10;99.90;;;;;;5155184;27;20055;-56
2023/06/11 03:37:45;;;;;;;8.63;5.07;;;17.10;99.90;;;;;;5154881;27;20061;-56
2023/06/11 03:40:11;;;;;;;7.32;4.38;;;17.10;99.90;;;;;;5154863;27;20039;-56
2023/06/11 03:42:37;;;;;;;8.35;5.18;;;17.10;99.90;;;;;;5136243;27;20082;-56
2023/06/11 03:45:03;;;;;;;7.65;4.57;;;17.10;99.90;;;;;;5155071;27;20042;-56
2023/06/11 03:47:28;;;;;;;8.95;4.75;;;17.20;99.90;;;;;;5136569;27;20053;-56
2023/06/11 03:49:54;;;;;;;7.95;4.65;;;17.10;99.90;;;;;;5154826;27;20039;-56
2023/06/11 03:52:20;;;;;;;8.57;5.20;;;17.20;99.90;;;;;;5156784;27;20400;-56
2023/06/11 03:54:46;;;;;;;8.20;4.45;;;17.10;99.90;;;;;;5158551;27;20095;-56
2023/06/11 03:57:12;;;;;;;7.78;4.82;;;17.20;99.90;;;;;;5158326;27;20089;-56
2023/06/11 03:59:38;;;;;;;8.70;4.80;;;17.20;99.90;;;;;;5158637;27;20130;-56
2023/06/11 04:02:04;;;;;;;8.02;4.90;;;17.20;99.90;;;;;;5140819;27;20046;-56
2023/06/11 04:04:32;;;;;;;7.40;4.97;;;17.20;99.90;;;;;;5158309;27;20500;-56
2023/06/11 04:06:58;;;;;;;7.72;4.55;;;17.20;99.90;;;;;;5158157;27;20501;-56
2023/06/11 04:09:24;;;;;;;7.68;4.82;;;17.20;99.90;;;;;;5158166;27;20095;-56
2023/06/11 04:11:49;;;;;;;9.68;5.53;;;17.20;99.90;;;;;;5158052;27;20051;-56
2023/06/11 04:14:15;;;;;;;9.05;5.55;;;17.30;99.90;;;;;;5158339;27;20061;-55
2023/06/11 04:16:41;;;;;;;8.63;5.25;;;17.30;99.90;;;;;;5158211;27;20042;-56
2023/06/11 04:19:06;;;;;;;7.90;4.45;;;17.30;99.90;;;;;;5158345;27;20133;-56
2023/06/11 04:21:32;;;;;;;8.32;4.47;;;17.40;99.90;;;;;;5157960;27;20042;-55
2023/06/11 04:23:57;;;;;;;8.30;5.05;;;17.40;99.90;;;;;;5139730;27;20089;-56
2023/06/11 04:26:23;;;;;;;8.93;4.95;;;17.40;99.90;;;;;;5157899;27;20485;-56
2023/06/11 04:28:50;;;;;;;7.75;5.15;;;17.40;99.90;;;;;;5157631;27;20378;-56
2023/06/11 04:31:16;;;;;;;7.43;5.07;;;17.40;99.90;;;;;;5157597;27;20489;-56
2023/06/11 04:33:42;;;;;;;9.18;4.95;;;17.50;99.90;;;;;;5157707;27;20050;-56
2023/06/11 04:36:08;;;;;;;9.27;5.60;;;17.50;99.90;;;;;;5157747;27;20460;-56
2023/06/11 04:38:36;;;;;;;8.68;5.40;;;17.50;99.90;;;;;;5157601;27;20125;-56
2023/06/11 04:41:02;;;;;;;8.77;5.38;;;17.60;99.90;;;;;;5139086;27;20529;-56
2023/06/11 04:43:33;;;;;;;9.00;5.25;;;17.60;99.90;;;;;;5157628;27;20043;-56
2023/06/11 04:45:59;;;;;;;8.27;5.00;;;17.60;99.90;;;;;;5157566;27;20481;-56
2023/06/11 04:48:31;;;;;;;8.10;4.90;;;17.70;99.90;;;;;;5139037;27;20038;-56
2023/06/11 04:51:01;;;;;;;8.82;5.25;;;17.70;99.90;;;;;;5157771;27;20049;-55
2023/06/11 04:53:29;;;;;;;9.45;5.30;;;17.70;99.90;;;;;;5157371;27;20051;-56
2023/06/11 04:55:56;;;;;;;8.52;5.28;;;17.70;99.90;;;;;;5157073;27;20045;-56
2023/06/11 04:58:23;;;;;;;7.60;4.88;;;17.80;99.90;;;;;;5157618;27;20050;-56
2023/06/11 05:00:50;;;;;;;7.82;4.95;;;17.80;99.90;;;;;;5157455;27;20043;-55
2023/06/11 05:03:17;;;;;;;6.97;4.70;;;17.90;99.90;;;;;;5156896;27;20069;-56
2023/06/11 05:05:49;;;;;;;10.13;5.88;;;17.90;99.90;;;;;;5157099;27;20405;-56
2023/06/11 05:08:24;;;;;;;9.23;5.28;;;17.90;99.90;;;;;;5157071;27;20051;-56
2023/06/11 05:10:51;;;;;;;9.13;4.95;;;18.10;99.90;;;;;;5157110;27;20068;-56
2023/06/11 05:13:22;;;;;;;7.50;4.43;;;18.30;99.90;;;;;;5156882;27;20046;-56
2023/06/11 05:15:48;;;;;;;7.75;5.00;;;18.70;99.90;;;;;;5157080;27;20050;-56
2023/06/11 05:18:14;;;;;;;;;;;19.10;99.90;;;;;;5139113;27;20050;-56
2023/06/11 05:20:40;;;;;;;8.05;4.60;;;19.70;99.90;;;;;;5156754;27;19923;-56
2023/06/11 05:23:06;;;;;;;7.93;5.43;;;20.00;99.90;;;;;;5156849;27;20078;-56
2023/06/11 05:25:32;;;;;;;9.48;4.95;;;19.90;99.90;;;;;;5157149;27;20194;-56
2023/06/11 05:28:02;;;;;;;7.00;4.45;;;19.80;99.90;;;;;;5157068;27;20046;-56
2023/06/11 05:30:33;;;;;;;7.30;4.40;;;19.70;99.90;;;;;;5156643;27;20047;-56
2023/06/11 05:33:00;;;;;;;7.05;4.50;;;19.70;99.90;;;;;;5156475;27;20042;-56
2023/06/11 05:35:26;;;;;;;10.50;4.75;;;19.70;99.90;;;;;;5156320;27;20097;-56
2023/06/11 05:37:52;;;;;;;7.60;4.68;;;19.60;99.90;;;;;;5156953;27;20070;-56
2023/06/11 05:40:18;;;;;;;7.82;4.55;;;19.60;99.90;;;;;;5156823;27;20095;-56
2023/06/11 05:42:44;;;;;;;6.75;4.18;;;19.60;99.90;;;;;;5156701;27;20035;-56
2023/06/11 05:45:09;;;;;;;8.10;4.85;;;19.60;99.90;;;;;;5137950;27;20049;-56
2023/06/11 05:47:35;;;;;;;8.15;4.93;;;19.60;99.90;;;;;;5156289;27;20438;-56
2023/06/11 05:50:01;;;;;;;9.02;5.32;;;19.60;99.90;;;;;;5137859;27;20446;-55
2023/06/11 05:52:27;;;;;;;8.05;4.57;;;19.60;99.90;;;;;;5156186;27;20082;-55
2023/06/11 05:54:53;;;;;;;7.45;4.70;;;19.60;99.90;;;;;;5156289;27;20047;-56
2023/06/11 05:57:20;;;;;;;8.50;4.72;;;19.60;99.90;;;;;;5156192;27;20078;-56
2023/06/11 05:59:46;;;;;;;7.60;4.60;;;19.60;99.90;;;;;;5156005;27;20057;-56
2023/06/11 06:02:12;;;;;;;;;;;19.70;99.90;;;;;;5138141;27;20099;-55
2023/06/11 06:04:38;;;;;;;8.02;4.93;;;19.70;99.90;;;;;;5155959;27;19927;-55
2023/06/11 06:07:04;;;;;;;7.18;4.40;;;19.80;99.90;;;;;;5156020;27;20053;-55
2023/06/11 06:09:29;;;;;;;6.57;4.63;;;19.80;99.90;;;;;;5156155;27;20051;-56
2023/06/11 06:11:55;;;;;;;7.05;4.05;;;19.90;99.90;;;;;;5156142;27;20435;-56
2023/06/11 06:14:21;;;;;;;7.00;4.30;;;19.90;99.90;;;;;;5155179;27;20038;-56
2023/06/11 06:16:46;;;;;;;8.65;4.85;;;20.00;99.90;;;;;;5137179;27;20098;-55
2023/06/11 06:19:12;;;;;;;8.13;4.63;;;20.00;99.90;;;;;;5137104;27;20057;-56
2023/06/11 06:21:38;;;;;;;6.72;4.45;;;20.10;99.90;;;;;;5155743;27;20590;-56
2023/06/11 06:24:04;;;;;;;7.65;4.68;;;20.10;99.90;;;;;;5155710;27;20038;-56
2023/06/11 06:26:30;;;;;;;6.78;4.38;;;20.20;99.90;;;;;;5155636;27;20035;-56
2023/06/11 06:28:56;;;;;;;8.88;4.28;;;20.30;99.90;;;;;;5155537;27;20046;-55
2023/06/11 06:31:24;;;;;;;6.97;4.93;;;20.40;99.90;;;;;;5155392;27;20477;-56
2023/06/11 06:33:50;;;;;;;7.38;4.55;;;20.40;99.90;;;;;;5155093;27;20102;-56
2023/06/11 06:36:19;;;;;;;6.47;4.38;;;20.50;99.90;;;;;;5155549;27;20042;-56
2023/06/11 06:38:46;;;;;;;8.23;4.95;;;20.60;99.90;;;;;;5155503;27;20046;-56
2023/06/11 06:41:12;;;;;;;6.95;4.30;;;20.60;99.90;;;;;;5137225;27;20046;-56
2023/06/11 06:43:38;;;;;;;7.70;4.90;;;20.70;99.90;;;;;;5155697;27;20041;-56
2023/06/11 06:46:03;;;;;;;7.78;4.75;;;20.80;99.90;;;;;;5155294;27;20088;-56
2023/06/11 06:48:29;;;;;;;7.88;4.60;;;20.90;99.90;;;;;;5155327;27;20070;-56
2023/06/11 06:50:55;;;;;;;8.55;4.15;;;21.10;99.90;;;;;;5155411;27;20126;-56
2023/06/11 06:53:21;;;;;;;7.82;4.75;;;21.20;99.90;;;;;;5155347;27;20099;-55
2023/06/11 06:55:47;;;;;;;9.05;4.50;;;21.20;99.90;;;;;;5155272;27;20050;-56
2023/06/11 06:58:13;;;;;;;6.45;3.88;;;21.30;99.90;;;;;;5137000;27;20054;-56
2023/06/11 07:00:38;;;;;;;8.77;4.50;;;21.40;99.90;;;;;;5155332;27;20051;-54
2023/06/11 07:03:04;;;;;;;6.95;4.50;;;21.40;99.90;;;;;;5155172;27;20042;-56
2023/06/11 07:05:30;;;;;;;6.80;4.30;;;21.40;99.90;;;;;;5155008;27;20116;-56
2023/06/11 07:07:56;;;;;;;7.88;4.13;;;21.50;99.90;;;;;;5155372;27;20054;-56
2023/06/11 07:10:21;;;;;;;7.72;3.85;;;21.60;99.90;;;;;;5155215;27;20043;-56
2023/06/11 07:12:48;;;;;;;7.43;4.47;;;21.80;99.90;;;;;;5155082;27;20051;-56
2023/06/11 07:15:13;;;;;;;8.65;4.65;;;22.00;99.90;;;;;;5136876;27;20053;-56
2023/06/11 07:17:39;;;;;;;6.93;4.05;;;22.10;99.90;;;;;;5154803;27;20043;-56
2023/06/11 07:20:07;;;;;;;7.18;3.92;;;22.20;99.90;;;;;;5154794;27;20054;-56
2023/06/11 07:22:33;;;;;;;8.07;4.22;;;22.30;99.90;;;;;;5155075;27;20125;-56
2023/06/11 07:25:00;;;;;;;6.57;3.83;;;22.60;99.90;;;;;;5136957;27;20458;-56
2023/06/11 07:27:26;;;;;;;8.05;4.18;;;22.90;99.90;;;;;;5159062;27;20107;-56
2023/06/11 07:29:52;;;;;;;8.02;3.80;;;23.10;99.90;;;;;;5158930;27;20152;-56
2023/06/11 07:32:18;;;;;;;7.03;4.53;;;23.20;99.90;;;;;;5158921;27;20536;-57
2023/06/11 07:34:43;;;;;;;6.38;3.83;;;23.20;99.90;;;;;;5159167;27;20138;-57
2023/06/11 07:37:09;;;;;;;6.88;4.32;;;23.10;99.90;;;;;;5158942;27;20043;-56
2023/06/11 07:39:35;;;;;;;7.38;4.10;;;23.00;99.90;;;;;;5141066;27;20078;-56
2023/06/11 07:42:01;;;;;;;6.88;3.85;;;22.90;99.90;;;;;;5158870;27;20039;-57
2023/06/11 07:44:27;;;;;;;;;;;22.90;99.90;;;;;;5159231;27;20046;-56
2023/06/11 07:46:52;;;;;;;7.88;3.97;;;22.90;99.90;;;;;;5158571;27;20317;-57
2023/06/11 07:49:18;;;;;;;6.57;4.20;;;22.90;99.90;;;;;;5159051;27;20396;-57
2023/06/11 07:51:46;;;;;;;6.38;4.30;;;22.90;99.90;;;;;;5158633;27;20101;-56
2023/06/11 07:54:11;;;;;;;6.88;4.00;;;22.90;99.90;;;;;;5158504;27;20050;-56
2023/06/11 07:56:37;;;;;;;8.45;4.32;;;22.90;99.90;;;;;;5158176;27;20398;-56
2023/06/11 07:59:03;;;;;;;7.07;4.53;;;23.00;99.90;;;;;;5158480;27;20050;-56
2023/06/11 08:01:29;;;;;;;6.60;4.40;;;23.00;99.90;;;;;;5158358;27;20047;-56
2023/06/11 08:03:55;;;;;;;7.55;3.88;;;23.00;99.90;;;;;;5140173;27;20390;-56
2023/06/11 08:06:20;;;;;;;7.88;4.38;;;23.10;99.90;;;;;;5158365;27;20053;-56
2023/06/11 08:08:47;;;;;;;8.13;4.10;;;23.10;99.90;;;;;;5158468;27;20144;-56
2023/06/11 08:11:14;;;;;;;7.10;4.38;;;23.10;99.90;;;;;;5158191;27;20051;-56
2023/06/11 08:13:40;;;;;;;7.68;4.60;;;23.10;99.90;;;;;;5158084;27;20091;-56
2023/06/11 08:16:09;;;;;;;7.32;4.25;;;23.20;99.90;;;;;;5139663;27;20043;-55
2023/06/11 08:18:35;;;;;;;7.22;4.45;;;23.20;99.90;;;;;;5158140;27;20042;-56
2023/06/11 08:21:02;;;;;;;8.90;4.00;;;23.30;99.90;;;;;;5158299;27;20125;-56
2023/06/11 08:23:28;;;;;;;7.13;4.38;;;23.30;99.90;;;;;;5139909;27;20043;-56
2023/06/11 08:25:58;;;;;;;6.32;3.67;;;23.30;99.90;;;;;;5157901;27;20034;-56
2023/06/11 08:28:24;;;;;;;6.47;4.20;;;23.30;99.90;;;;;;5157842;27;20047;-56
2023/06/11 08:30:50;;;;;;;7.28;4.10;;;23.30;99.90;;;;;;5157905;27;20481;-56
2023/06/11 08:33:17;;;;;;;6.25;4.07;;;23.40;99.90;;;;;;5157534;27;20089;-55
2023/06/11 08:35:43;;;;;;;7.43;4.53;;;23.40;99.90;;;;;;5157776;27;20553;-56
2023/06/11 08:38:08;;;;;;;6.00;3.80;;;23.40;99.90;;;;;;5156988;27;20047;-56
2023/06/11 08:40:39;;;;;;;;;;;23.40;99.90;;;;;;5158110;27;20050;-52
2023/06/11 08:43:05;;;;;;;7.25;4.50;;;23.50;99.90;;;;;;5157495;27;19919;-56
2023/06/11 08:45:30;;;;;;;6.90;4.05;;;23.50;99.90;;;;;;5157507;27;20058;-56
2023/06/11 08:47:56;;;;;;;;;;;23.50;99.90;;;;;;5139277;27;20046;-56
2023/06/11 08:50:24;;;;;;;6.57;3.97;;;23.50;99.90;;;;;;5157479;27;20009;-56
2023/06/11 08:52:53;;;;;;;7.35;4.53;;;23.60;99.90;;;;;;5157589;27;20035;-56
2023/06/11 08:55:19;;;;;;;5.78;3.58;;;23.60;99.90;;;;;;5157430;27;20042;-56
2023/06/11 08:57:46;;;;;;;;;;;23.70;99.90;;;;;;5139085;27;20050;-56
2023/06/11 09:00:13;;;;;;;6.38;3.95;;;23.70;99.90;;;;;;5157517;27;19919;-56
2023/06/11 09:02:39;;;;;;;6.07;4.00;;;23.70;99.90;;;;;;5139116;27;20499;-56
2023/06/11 09:05:05;;;;;;;;;;;23.80;99.90;;;;;;5139635;27;20049;-56
2023/06/11 09:07:30;;;;;;;6.20;4.07;;;23.80;99.90;;;;;;5157183;27;19919;-57
2023/06/11 09:10:06;;;;;;;;;;;23.90;99.90;;;;;;5157517;27;20071;-56
2023/06/11 09:12:32;;;;;;;6.75;4.10;;;24.00;99.90;;;;;;5157318;27;19923;-56
2023/06/11 09:14:58;;;;;;;;;;;23.90;99.90;;;;;;5157470;27;20386;-57
2023/06/11 09:17:26;;;;;;;7.18;3.92;;;24.00;99.90;;;;;;5156978;27;19919;-56
2023/06/11 09:19:54;;;;;;;8.85;5.18;;;24.00;99.90;;;;;;5156650;27;20498;-56
2023/06/11 09:22:26;;;;;;;6.20;4.00;;;24.10;99.90;;;;;;5156858;27;20117;-56
2023/06/11 09:24:52;;;;;;;6.53;4.13;;;24.20;99.90;;;;;;5156728;27;20043;-56
2023/06/11 09:27:20;;;;;;;;;;;24.20;99.90;;;;;;5157154;27;20362;-56
2023/06/11 09:29:45;;;;;;;6.20;3.90;;;24.20;99.90;;;;;;5156747;27;20459;-56
2023/06/11 09:32:12;;;;;;;;;;;24.30;99.90;;;;;;5157360;27;20122;-56
2023/06/11 09:34:37;;;;;;;5.47;3.55;;;24.30;99.90;;;;;;5156722;27;19923;-56
2023/06/11 09:37:03;;;;;;;;;;;24.40;99.90;;;;;;5156757;27;20057;-56
2023/06/11 09:39:30;;;;;;;6.70;3.90;;;24.40;99.90;;;;;;5156400;27;19919;-56
2023/06/11 09:41:56;;;;;;;5.80;3.67;;;24.50;99.90;;;;;;5156467;27;20394;-56
2023/06/11 09:44:23;;;;;;;;;;;24.60;99.90;;;;;;5156821;27;20050;-56
2023/06/11 09:46:49;;;;;;;5.97;3.83;;;24.60;99.90;;;;;;5156397;27;19919;-56
2023/06/11 09:49:16;;;;;;;;;;;24.60;99.90;;;;;;5137298;27;20038;-56
2023/06/11 09:51:42;;;;;;;7.72;4.22;;;24.70;99.90;;;;;;5156513;27;20327;-56
2023/06/11 09:54:08;;;;;;;6.38;3.83;;;24.70;99.90;;;;;;5155888;27;20053;-57
2023/06/11 09:56:37;;;;;;;;;;;24.80;99.90;;;;;;5156536;27;20039;-56
2023/06/11 09:59:04;;;;;;;5.43;3.40;;;24.90;99.90;;;;;;5156164;27;19981;-56
2023/06/11 10:01:31;;;;;;;8.27;4.32;;;24.90;99.90;;;;;;5156082;27;20043;-56
2023/06/11 10:04:00;;;;;;;6.43;4.03;;;25.00;99.90;;;;;;5155962;27;20050;-56
2023/06/11 10:06:33;;;;;;;5.97;3.28;;;25.00;99.90;;;;;;5120339;27;20091;-56
2023/06/11 10:09:03;;;;;;;5.80;3.60;;;25.10;99.90;;;;;;5156315;27;20046;-56
2023/06/11 10:11:35;;;;;;;5.38;3.40;;;25.20;99.90;;;;;;5156006;27;20041;-56
2023/06/11 10:14:01;;;;;;;6.28;4.10;;;25.30;99.90;;;;;;5155930;27;20047;-56
2023/06/11 10:16:30;;;;;;;8.23;4.10;;;25.40;99.90;;;;;;5155603;27;20042;-56
2023/06/11 10:19:10;;;;;;;9.30;4.15;;;25.50;99.90;;;;;;5155579;27;20043;-56
2023/06/11 10:21:44;;;;;;;7.07;3.70;;;25.50;99.90;;;;;;5155783;27;20078;-56
2023/06/11 10:24:22;;;;;;;5.65;3.60;;;25.60;99.90;;;;;;5155719;27;20035;-56
2023/06/11 10:27:07;;;;;;;6.53;3.50;;;25.80;99.90;;;;;;5155651;27;20053;-56
2023/06/11 10:29:37;;;;;;;7.38;3.85;;;25.90;99.90;;;;;;5155435;27;20073;-56
2023/06/11 10:32:03;;;;;;;7.95;3.97;;;26.00;99.90;;;;;;5155542;27;20395;-56
2023/06/11 10:34:39;;;;;;;6.32;3.90;;;26.10;99.90;;;;;;5155366;27;20059;-56
2023/06/11 10:37:06;;;;;;;6.03;3.50;;;26.20;99.90;;;;;;5155542;27;20054;-56
2023/06/11 10:39:31;;;;;;;5.38;3.20;;;26.30;99.90;;;;;;5155406;27;20061;-56
2023/06/11 10:42:02;;;;;;;5.07;3.38;;;26.40;99.90;;;;;;5155379;27;20038;-56
2023/06/11 10:44:31;;;;;;;7.10;3.90;;;26.50;99.90;;;;;;5137087;27;20485;-56
2023/06/11 10:47:00;;;;;;;7.07;3.80;;;26.60;99.90;;;;;;5155320;27;20049;-56
2023/06/11 10:49:27;;;;;;;5.63;3.40;;;26.60;99.90;;;;;;5155349;27;20095;-56
2023/06/11 10:51:53;;;;;;;5.72;3.38;;;26.70;99.90;;;;;;5155328;27;20046;-56
2023/06/11 10:54:25;;;;;;;6.85;3.83;;;26.80;99.90;;;;;;5155095;27;20038;-56
2023/06/11 10:56:52;;;;;;;5.25;3.47;;;27.00;99.90;;;;;;5155062;27;20496;-56
2023/06/11 10:59:18;;;;;;;6.80;3.88;;;27.10;99.90;;;;;;5155279;27;20110;-57
2023/06/11 11:01:44;;;;;;;6.47;4.22;;;27.20;99.90;;;;;;5158546;27;20042;-56
2023/06/11 11:04:09;;;;;;;5.55;3.10;;;27.30;99.90;;;;;;5159776;27;20091;-57
2023/06/11 11:06:38;;;;;;;6.03;3.33;;;27.40;99.90;;;;;;5159607;27;20050;-56
2023/06/11 11:09:04;;;;;;;5.57;3.20;;;27.50;99.90;;;;;;5159427;27;20055;-57
2023/06/11 11:11:30;;;;;;;5.93;3.53;;;27.60;99.90;;;;;;5159494;27;20366;-56
2023/06/11 11:13:58;;;;;;;5.30;3.25;;;27.70;99.90;;;;;;5159302;27;20480;-56
2023/06/11 11:16:25;;;;;;;5.85;3.40;;;27.80;99.90;;;;;;5159381;27;20050;-56
2023/06/11 11:18:51;;;;;;;6.68;4.57;;;27.90;99.90;;;;;;5140753;27;20434;-56
2023/06/11 11:21:18;;;;;;;5.78;3.47;;;28.10;99.90;;;;;;5159108;27;20069;-56
2023/06/11 11:23:48;;;;;;;5.85;3.47;;;28.10;99.90;;;;;;5140852;27;20035;-56
2023/06/11 11:26:17;;;;;;;6.43;3.42;;;28.20;99.80;;;;;;5159154;27;20043;-56
2023/06/11 11:28:43;;;;;;;4.57;3.28;;;28.30;99.40;;;;;;5159055;27;20121;-57
2023/06/11 11:31:10;;;;;;;5.10;3.15;;;28.40;99.00;;;;;;5159114;27;20125;-57
2023/06/11 11:33:36;;;;;;;5.05;3.05;;;28.40;98.30;;;;;;5158587;27;20470;-56
2023/06/11 11:36:04;;;;;;;8.25;3.97;;;28.50;97.90;;;;;;5158939;27;20054;-57
2023/06/11 11:38:36;;;;;;;5.40;3.10;;;28.60;97.20;;;;;;5158652;27;20043;-57
2023/06/11 11:41:06;;;;;;;4.30;2.70;;;28.70;96.60;;;;;;5140978;27;20130;-56
2023/06/11 11:43:42;;;;;;;5.78;3.33;;;28.80;95.90;;;;;;5140461;27;20034;-57
2023/06/11 11:46:18;;;;;;;5.25;3.05;;;28.80;95.20;;;;;;5158643;27;20046;-57
2023/06/11 11:48:44;;;;;;;;;;;28.90;95.50;;;;;;5159233;27;20039;-57
2023/06/11 11:51:13;;;;;;;4.93;3.10;;;29.00;96.10;;;;;;5140619;27;19919;-57
2023/06/11 11:53:40;;;;;;;3.72;2.13;;;29.10;95.10;;;;;;5140094;27;20042;-57
2023/06/11 11:56:05;;;;;;;4.43;2.58;;;29.20;94.80;;;;;;5158568;27;20047;-57
2023/06/11 11:58:53;;;;;;;5.40;3.00;;;29.30;94.20;;;;;;5158440;27;20061;-56
2023/06/11 12:01:26;;;;;;;4.38;2.55;;;29.40;93.40;;;;;;5158505;27;20096;-57
2023/06/11 12:03:56;;;;;;;5.28;3.20;;;29.50;93.20;;;;;;5158450;27;20102;-57
2023/06/11 12:06:24;;;;;;;5.43;2.88;;;29.60;92.60;;;;;;5158419;27;20042;-57
2023/06/11 12:08:50;;;;;;;4.93;2.90;;;29.60;91.50;;;;;;5158356;27;20043;-57
2023/06/11 12:11:16;;;;;;;6.13;3.10;;;29.70;90.60;;;;;;5157811;27;20130;-57
2023/06/11 12:13:41;;;;;;;5.60;3.30;;;29.70;90.60;;;;;;5157219;27;20066;-57
2023/06/11 12:16:07;;;;;;;5.30;3.08;;;29.60;90.70;;;;;;5158160;27;20065;-57
2023/06/11 12:18:33;;;;;;;5.07;2.67;;;29.70;90.30;;;;;;5158298;27;20125;-57
2023/06/11 12:20:58;;;;;;;6.13;3.00;;;29.70;90.00;;;;;;5158410;27;20043;-57
2023/06/11 12:23:24;;;;;;;5.95;2.97;;;29.70;88.90;;;;;;5158057;27;20090;-57
2023/06/11 12:25:50;;;;;;;4.53;2.95;;;29.70;87.50;;;;;;5157893;27;20049;-57
2023/06/11 12:28:17;;;;;;;5.90;3.53;;;29.70;85.60;;;;;;5157899;27;20126;-57
2023/06/11 12:30:43;;;;;;;5.60;2.90;;;29.60;83.90;;;;;;5157662;27;20405;-57
2023/06/11 12:33:09;;;;;;;5.90;2.95;;;29.50;83.20;;;;;;5157806;27;20035;-57
2023/06/11 12:35:36;;;;;;;5.28;3.45;;;29.50;82.50;;;;;;5157910;27;20137;-57
2023/06/11 12:38:02;;;;;;;5.13;3.22;;;29.40;81.60;;;;;;5157722;27;20050;-57
2023/06/11 12:40:30;;;;;;;6.25;3.03;;;29.40;81.00;;;;;;5157750;27;20046;-57
2023/06/11 12:42:59;;;;;;;4.47;3.00;;;29.50;81.40;;;;;;5157485;27;20035;-57
2023/06/11 12:45:30;;;;;;;4.97;3.25;;;29.60;80.30;;;;;;5157515;27;20134;-57
2023/06/11 12:47:56;;;;;;;4.93;2.90;;;29.70;79.60;;;;;;5157514;27;20049;-57
2023/06/11 12:50:26;;;;;;;4.72;2.83;;;29.80;79.60;;;;;;5157572;27;20451;-57
2023/06/11 12:52:52;;;;;;;5.18;2.97;;;29.80;79.60;;;;;;5139191;27;20085;-57